sensor_id;sensor_type;location;lat;lon;timestamp;P1;durP1;ratioP1;P2;durP2;ratioP2
12177;SDS011;6152;48.728;9.256;2022-12-07T00:01:13;10.10;;;5.25;;
12177;SDS011;6152;48.728;9.256;2022-12-07T00:03:42;6.88;;;5.05;;
12177;SDS011;6152;48.728;9.256;2022-12-07T00:06:10;13.07;;;5.70;;
12177;SDS011;6152;48.728;9.256;2022-12-07T00:08:38;7.03;;;5.05;;
12177;SDS011;6152;48.728;9.256;2022-12-07T00:11:06;7.63;;;4.72;;
12177;SDS011;6152;48.728;9.256;2022-12-07T00:13:41;6.68;;;4.15;;
12177;SDS011;6152;48.728;9.256;2022-12-07T00:16:11;7.30;;;4.85;;
12177;SDS011;6152;48.728;9.256;2022-12-07T00:18:40;7.63;;;4.72;;
12177;SDS011;6152;48.728;9.256;2022-12-07T00:23:40;5.78;;;4.65;;
12177;SDS011;6152;48.728;9.256;2022-12-07T00:26:08;6.10;;;4.55;;
12177;SDS011;6152;48.728;9.256;2022-12-07T00:28:39;6.38;;;4.65;;
12177;SDS011;6152;48.728;9.256;2022-12-07T00:31:07;9.15;;;5.03;;
12177;SDS011;6152;48.728;9.256;2022-12-07T00:33:35;7.50;;;5.00;;
12177;SDS011;6152;48.728;9.256;2022-12-07T00:36:02;8.05;;;4.70;;
12177;SDS011;6152;48.728;9.256;2022-12-07T00:38:32;7.93;;;5.32;;
12177;SDS011;6152;48.728;9.256;2022-12-07T00:41:01;6.75;;;4.90;;
12177;SDS011;6152;48.728;9.256;2022-12-07T00:43:32;6.93;;;4.72;;
12177;SDS011;6152;48.728;9.256;2022-12-07T00:45:59;6.93;;;4.63;;
12177;SDS011;6152;48.728;9.256;2022-12-07T00:48:25;9.20;;;4.93;;
12177;SDS011;6152;48.728;9.256;2022-12-07T00:50:51;7.40;;;5.35;;
12177;SDS011;6152;48.728;9.256;2022-12-07T00:53:18;10.07;;;5.95;;
12177;SDS011;6152;48.728;9.256;2022-12-07T00:55:44;7.68;;;5.70;;
12177;SDS011;6152;48.728;9.256;2022-12-07T00:58:11;9.70;;;5.75;;
12177;SDS011;6152;48.728;9.256;2022-12-07T01:00:38;9.32;;;6.35;;
12177;SDS011;6152;48.728;9.256;2022-12-07T01:03:06;8.07;;;5.20;;
12177;SDS011;6152;48.728;9.256;2022-12-07T01:05:34;9.45;;;6.07;;
12177;SDS011;6152;48.728;9.256;2022-12-07T01:08:00;11.45;;;5.90;;
12177;SDS011;6152;48.728;9.256;2022-12-07T01:10:27;8.48;;;5.72;;
12177;SDS011;6152;48.728;9.256;2022-12-07T01:12:55;7.68;;;5.72;;
12177;SDS011;6152;48.728;9.256;2022-12-07T01:15:21;9.32;;;5.85;;
12177;SDS011;6152;48.728;9.256;2022-12-07T01:17:47;8.27;;;5.78;;
12177;SDS011;6152;48.728;9.256;2022-12-07T01:20:13;8.60;;;5.90;;
12177;SDS011;6152;48.728;9.256;2022-12-07T01:22:41;7.43;;;5.55;;
12177;SDS011;6152;48.728;9.256;2022-12-07T01:25:08;8.98;;;6.22;;
12177;SDS011;6152;48.728;9.256;2022-12-07T01:27:36;10.88;;;5.45;;
12177;SDS011;6152;48.728;9.256;2022-12-07T01:30:03;9.90;;;5.93;;
12177;SDS011;6152;48.728;9.256;2022-12-07T01:32:31;9.20;;;6.10;;
12177;SDS011;6152;48.728;9.256;2022-12-07T01:34:57;10.82;;;6.43;;
12177;SDS011;6152;48.728;9.256;2022-12-07T01:37:24;9.05;;;5.85;;
12177;SDS011;6152;48.728;9.256;2022-12-07T01:39:50;10.82;;;6.60;;
12177;SDS011;6152;48.728;9.256;2022-12-07T01:42:17;10.13;;;6.18;;
12177;SDS011;6152;48.728;9.256;2022-12-07T01:45:14;10.27;;;6.30;;
12177;SDS011;6152;48.728;9.256;2022-12-07T01:47:43;9.05;;;5.90;;
12177;SDS011;6152;48.728;9.256;2022-12-07T01:50:18;10.32;;;6.03;;
12177;SDS011;6152;48.728;9.256;2022-12-07T01:52:46;12.02;;;6.30;;
12177;SDS011;6152;48.728;9.256;2022-12-07T01:55:16;8.95;;;5.85;;
12177;SDS011;6152;48.728;9.256;2022-12-07T01:57:45;9.82;;;6.10;;
12177;SDS011;6152;48.728;9.256;2022-12-07T02:00:13;8.43;;;5.30;;
12177;SDS011;6152;48.728;9.256;2022-12-07T02:05:20;11.02;;;6.15;;
12177;SDS011;6152;48.728;9.256;2022-12-07T02:07:49;9.93;;;6.47;;
12177;SDS011;6152;48.728;9.256;2022-12-07T02:13:04;10.05;;;7.05;;
12177;SDS011;6152;48.728;9.256;2022-12-07T02:15:47;12.20;;;6.50;;
12177;SDS011;6152;48.728;9.256;2022-12-07T02:30:00;11.30;;;6.20;;
12177;SDS011;6152;48.728;9.256;2022-12-07T02:36:25;9.93;;;6.10;;
12177;SDS011;6152;48.728;9.256;2022-12-07T02:38:37;9.95;;;6.85;;
12177;SDS011;6152;48.728;9.256;2022-12-07T02:41:06;10.35;;;6.47;;
12177;SDS011;6152;48.728;9.256;2022-12-07T02:43:34;9.45;;;5.97;;
12177;SDS011;6152;48.728;9.256;2022-12-07T02:46:06;9.80;;;6.35;;
12177;SDS011;6152;48.728;9.256;2022-12-07T02:48:39;10.88;;;6.25;;
12177;SDS011;6152;48.728;9.256;2022-12-07T02:51:08;11.63;;;6.38;;
12177;SDS011;6152;48.728;9.256;2022-12-07T02:53:38;10.52;;;6.50;;
12177;SDS011;6152;48.728;9.256;2022-12-07T03:07:51;11.02;;;6.60;;
12177;SDS011;6152;48.728;9.256;2022-12-07T03:10:11;10.43;;;6.10;;
12177;SDS011;6152;48.728;9.256;2022-12-07T03:15:49;10.43;;;6.72;;
12177;SDS011;6152;48.728;9.256;2022-12-07T03:18:20;8.15;;;5.22;;
12177;SDS011;6152;48.728;9.256;2022-12-07T03:20:49;10.15;;;6.63;;
12177;SDS011;6152;48.728;9.256;2022-12-07T03:23:18;12.15;;;6.93;;
12177;SDS011;6152;48.728;9.256;2022-12-07T03:25:47;11.73;;;6.80;;
12177;SDS011;6152;48.728;9.256;2022-12-07T03:28:19;9.85;;;6.72;;
12177;SDS011;6152;48.728;9.256;2022-12-07T03:30:49;9.48;;;5.85;;
12177;SDS011;6152;48.728;9.256;2022-12-07T03:33:33;12.38;;;6.75;;
12177;SDS011;6152;48.728;9.256;2022-12-07T03:36:13;9.57;;;6.53;;
12177;SDS011;6152;48.728;9.256;2022-12-07T03:38:53;9.20;;;6.07;;
12177;SDS011;6152;48.728;9.256;2022-12-07T03:41:28;10.25;;;6.50;;
12177;SDS011;6152;48.728;9.256;2022-12-07T03:43:58;11.30;;;6.72;;
12177;SDS011;6152;48.728;9.256;2022-12-07T03:49:08;11.13;;;6.72;;
12177;SDS011;6152;48.728;9.256;2022-12-07T03:52:12;9.75;;;6.20;;
12177;SDS011;6152;48.728;9.256;2022-12-07T03:57:31;9.32;;;6.55;;
12177;SDS011;6152;48.728;9.256;2022-12-07T04:00:00;12.23;;;7.60;;
12177;SDS011;6152;48.728;9.256;2022-12-07T04:02:29;10.95;;;7.22;;
12177;SDS011;6152;48.728;9.256;2022-12-07T04:04:55;10.45;;;6.30;;
12177;SDS011;6152;48.728;9.256;2022-12-07T04:07:22;10.10;;;6.22;;
12177;SDS011;6152;48.728;9.256;2022-12-07T04:09:48;9.63;;;6.35;;
12177;SDS011;6152;48.728;9.256;2022-12-07T04:12:14;11.85;;;6.97;;
12177;SDS011;6152;48.728;9.256;2022-12-07T04:14:40;11.15;;;6.60;;
12177;SDS011;6152;48.728;9.256;2022-12-07T04:17:06;9.95;;;6.38;;
12177;SDS011;6152;48.728;9.256;2022-12-07T04:19:33;10.57;;;6.63;;
12177;SDS011;6152;48.728;9.256;2022-12-07T04:22:00;8.50;;;6.38;;
12177;SDS011;6152;48.728;9.256;2022-12-07T04:24:28;8.32;;;5.95;;
12177;SDS011;6152;48.728;9.256;2022-12-07T04:26:54;9.00;;;6.10;;
12177;SDS011;6152;48.728;9.256;2022-12-07T04:29:21;10.13;;;6.35;;
12177;SDS011;6152;48.728;9.256;2022-12-07T04:31:47;9.82;;;6.25;;
12177;SDS011;6152;48.728;9.256;2022-12-07T04:34:14;12.18;;;7.00;;
12177;SDS011;6152;48.728;9.256;2022-12-07T04:36:41;11.33;;;6.77;;
12177;SDS011;6152;48.728;9.256;2022-12-07T04:39:09;10.80;;;6.65;;
12177;SDS011;6152;48.728;9.256;2022-12-07T04:41:46;9.45;;;6.68;;
12177;SDS011;6152;48.728;9.256;2022-12-07T04:44:13;11.32;;;6.70;;
12177;SDS011;6152;48.728;9.256;2022-12-07T04:46:40;10.25;;;6.35;;
12177;SDS011;6152;48.728;9.256;2022-12-07T04:49:07;10.32;;;6.70;;
12177;SDS011;6152;48.728;9.256;2022-12-07T04:51:33;9.20;;;5.55;;
12177;SDS011;6152;48.728;9.256;2022-12-07T04:53:59;12.10;;;6.50;;
12177;SDS011;6152;48.728;9.256;2022-12-07T04:56:25;9.27;;;5.40;;
12177;SDS011;6152;48.728;9.256;2022-12-07T04:58:52;8.13;;;5.03;;
12177;SDS011;6152;48.728;9.256;2022-12-07T05:01:20;9.80;;;5.53;;
12177;SDS011;6152;48.728;9.256;2022-12-07T05:03:47;13.18;;;6.22;;
12177;SDS011;6152;48.728;9.256;2022-12-07T05:06:14;8.73;;;5.67;;
12177;SDS011;6152;48.728;9.256;2022-12-07T05:08:40;9.35;;;5.80;;
12177;SDS011;6152;48.728;9.256;2022-12-07T05:11:08;10.07;;;5.85;;
12177;SDS011;6152;48.728;9.256;2022-12-07T05:13:54;7.47;;;4.93;;
12177;SDS011;6152;48.728;9.256;2022-12-07T05:16:21;9.10;;;5.95;;
12177;SDS011;6152;48.728;9.256;2022-12-07T05:18:47;7.72;;;5.13;;
12177;SDS011;6152;48.728;9.256;2022-12-07T05:21:13;9.93;;;5.05;;
12177;SDS011;6152;48.728;9.256;2022-12-07T05:23:39;9.60;;;5.03;;
12177;SDS011;6152;48.728;9.256;2022-12-07T05:26:05;10.15;;;5.78;;
12177;SDS011;6152;48.728;9.256;2022-12-07T05:28:31;7.88;;;5.53;;
12177;SDS011;6152;48.728;9.256;2022-12-07T05:30:57;12.20;;;6.53;;
12177;SDS011;6152;48.728;9.256;2022-12-07T05:33:23;9.07;;;6.03;;
12177;SDS011;6152;48.728;9.256;2022-12-07T05:35:50;6.77;;;4.87;;
12177;SDS011;6152;48.728;9.256;2022-12-07T05:38:16;9.40;;;5.65;;
12177;SDS011;6152;48.728;9.256;2022-12-07T05:40:42;9.52;;;5.43;;
12177;SDS011;6152;48.728;9.256;2022-12-07T05:43:08;11.70;;;6.10;;
12177;SDS011;6152;48.728;9.256;2022-12-07T05:45:35;11.13;;;6.55;;
12177;SDS011;6152;48.728;9.256;2022-12-07T05:48:01;11.65;;;6.45;;
12177;SDS011;6152;48.728;9.256;2022-12-07T05:50:27;10.60;;;5.87;;
12177;SDS011;6152;48.728;9.256;2022-12-07T05:52:53;8.23;;;4.97;;
12177;SDS011;6152;48.728;9.256;2022-12-07T05:55:19;10.23;;;5.80;;
12177;SDS011;6152;48.728;9.256;2022-12-07T05:57:46;9.63;;;5.87;;
12177;SDS011;6152;48.728;9.256;2022-12-07T06:00:30;8.90;;;5.73;;
12177;SDS011;6152;48.728;9.256;2022-12-07T06:02:57;9.50;;;6.10;;
12177;SDS011;6152;48.728;9.256;2022-12-07T06:05:23;9.60;;;4.97;;
12177;SDS011;6152;48.728;9.256;2022-12-07T06:07:49;10.60;;;5.50;;
12177;SDS011;6152;48.728;9.256;2022-12-07T06:10:15;8.87;;;4.83;;
12177;SDS011;6152;48.728;9.256;2022-12-07T06:12:42;8.30;;;4.88;;
12177;SDS011;6152;48.728;9.256;2022-12-07T06:15:10;9.83;;;5.47;;
12177;SDS011;6152;48.728;9.256;2022-12-07T06:17:38;7.72;;;5.10;;
12177;SDS011;6152;48.728;9.256;2022-12-07T06:20:04;11.60;;;6.10;;
12177;SDS011;6152;48.728;9.256;2022-12-07T06:22:31;9.73;;;5.90;;
12177;SDS011;6152;48.728;9.256;2022-12-07T06:24:57;12.00;;;5.43;;
12177;SDS011;6152;48.728;9.256;2022-12-07T06:27:23;7.60;;;4.93;;
12177;SDS011;6152;48.728;9.256;2022-12-07T06:29:49;9.15;;;5.35;;
12177;SDS011;6152;48.728;9.256;2022-12-07T06:32:15;7.28;;;4.90;;
12177;SDS011;6152;48.728;9.256;2022-12-07T06:34:41;9.63;;;5.03;;
12177;SDS011;6152;48.728;9.256;2022-12-07T06:37:08;8.20;;;5.40;;
12177;SDS011;6152;48.728;9.256;2022-12-07T06:39:34;8.35;;;5.85;;
12177;SDS011;6152;48.728;9.256;2022-12-07T06:42:00;10.35;;;5.25;;
12177;SDS011;6152;48.728;9.256;2022-12-07T06:44:26;7.85;;;5.28;;
12177;SDS011;6152;48.728;9.256;2022-12-07T06:46:52;8.57;;;5.53;;
12177;SDS011;6152;48.728;9.256;2022-12-07T06:49:19;7.93;;;5.03;;
12177;SDS011;6152;48.728;9.256;2022-12-07T06:51:45;10.45;;;6.38;;
12177;SDS011;6152;48.728;9.256;2022-12-07T06:54:12;11.95;;;6.03;;
12177;SDS011;6152;48.728;9.256;2022-12-07T06:56:39;11.05;;;6.95;;
12177;SDS011;6152;48.728;9.256;2022-12-07T06:59:06;11.80;;;5.15;;
12177;SDS011;6152;48.728;9.256;2022-12-07T07:01:33;8.95;;;5.63;;
12177;SDS011;6152;48.728;9.256;2022-12-07T07:04:00;7.72;;;5.45;;
12177;SDS011;6152;48.728;9.256;2022-12-07T07:06:26;10.02;;;5.72;;
12177;SDS011;6152;48.728;9.256;2022-12-07T07:08:53;10.80;;;6.00;;
12177;SDS011;6152;48.728;9.256;2022-12-07T07:11:19;9.37;;;5.80;;
12177;SDS011;6152;48.728;9.256;2022-12-07T07:13:45;7.82;;;5.30;;
12177;SDS011;6152;48.728;9.256;2022-12-07T07:16:12;11.60;;;5.03;;
12177;SDS011;6152;48.728;9.256;2022-12-07T07:18:38;10.32;;;5.15;;
12177;SDS011;6152;48.728;9.256;2022-12-07T07:21:04;7.60;;;5.23;;
12177;SDS011;6152;48.728;9.256;2022-12-07T07:23:31;10.27;;;5.95;;
12177;SDS011;6152;48.728;9.256;2022-12-07T07:25:57;9.27;;;5.30;;
12177;SDS011;6152;48.728;9.256;2022-12-07T07:28:23;7.43;;;4.93;;
12177;SDS011;6152;48.728;9.256;2022-12-07T07:30:49;8.60;;;4.53;;
12177;SDS011;6152;48.728;9.256;2022-12-07T07:33:16;7.45;;;4.82;;
12177;SDS011;6152;48.728;9.256;2022-12-07T07:35:42;7.95;;;4.80;;
12177;SDS011;6152;48.728;9.256;2022-12-07T07:38:08;7.20;;;4.43;;
12177;SDS011;6152;48.728;9.256;2022-12-07T07:40:34;7.60;;;4.73;;
12177;SDS011;6152;48.728;9.256;2022-12-07T07:43:01;7.20;;;4.70;;
12177;SDS011;6152;48.728;9.256;2022-12-07T07:45:27;7.33;;;4.57;;
12177;SDS011;6152;48.728;9.256;2022-12-07T07:47:54;8.80;;;5.33;;
12177;SDS011;6152;48.728;9.256;2022-12-07T07:50:20;9.03;;;5.10;;
12177;SDS011;6152;48.728;9.256;2022-12-07T07:52:47;9.70;;;5.17;;
12177;SDS011;6152;48.728;9.256;2022-12-07T07:55:13;7.60;;;4.70;;
12177;SDS011;6152;48.728;9.256;2022-12-07T07:57:40;8.73;;;5.80;;
12177;SDS011;6152;48.728;9.256;2022-12-07T08:00:13;8.67;;;5.30;;
12177;SDS011;6152;48.728;9.256;2022-12-07T08:02:40;7.47;;;5.07;;
12177;SDS011;6152;48.728;9.256;2022-12-07T08:05:08;7.00;;;4.73;;
12177;SDS011;6152;48.728;9.256;2022-12-07T08:07:38;7.83;;;5.43;;
12177;SDS011;6152;48.728;9.256;2022-12-07T08:10:05;8.23;;;5.53;;
12177;SDS011;6152;48.728;9.256;2022-12-07T08:12:35;9.40;;;5.40;;
12177;SDS011;6152;48.728;9.256;2022-12-07T08:15:02;9.63;;;5.77;;
12177;SDS011;6152;48.728;9.256;2022-12-07T08:17:29;9.03;;;5.17;;
12177;SDS011;6152;48.728;9.256;2022-12-07T08:19:55;8.60;;;5.57;;
12177;SDS011;6152;48.728;9.256;2022-12-07T08:22:21;8.67;;;5.63;;
12177;SDS011;6152;48.728;9.256;2022-12-07T08:24:47;10.20;;;5.90;;
12177;SDS011;6152;48.728;9.256;2022-12-07T08:27:13;9.17;;;5.53;;
12177;SDS011;6152;48.728;9.256;2022-12-07T08:29:39;8.27;;;5.50;;
12177;SDS011;6152;48.728;9.256;2022-12-07T08:32:06;9.97;;;5.43;;
12177;SDS011;6152;48.728;9.256;2022-12-07T08:34:32;9.83;;;6.17;;
12177;SDS011;6152;48.728;9.256;2022-12-07T08:36:58;9.63;;;5.87;;
12177;SDS011;6152;48.728;9.256;2022-12-07T08:39:24;9.87;;;6.00;;
12177;SDS011;6152;48.728;9.256;2022-12-07T08:41:50;9.77;;;5.87;;
12177;SDS011;6152;48.728;9.256;2022-12-07T08:44:16;7.83;;;5.27;;
12177;SDS011;6152;48.728;9.256;2022-12-07T08:46:46;13.23;;;7.30;;
12177;SDS011;6152;48.728;9.256;2022-12-07T08:49:22;8.20;;;5.70;;
12177;SDS011;6152;48.728;9.256;2022-12-07T08:51:57;7.93;;;5.45;;
12177;SDS011;6152;48.728;9.256;2022-12-07T08:54:24;8.65;;;5.78;;
12177;SDS011;6152;48.728;9.256;2022-12-07T08:56:50;9.15;;;5.55;;
12177;SDS011;6152;48.728;9.256;2022-12-07T08:59:18;8.97;;;5.87;;
12177;SDS011;6152;48.728;9.256;2022-12-07T09:01:45;10.43;;;5.63;;
12177;SDS011;6152;48.728;9.256;2022-12-07T09:04:11;9.50;;;5.50;;
12177;SDS011;6152;48.728;9.256;2022-12-07T09:06:38;11.07;;;5.60;;
12177;SDS011;6152;48.728;9.256;2022-12-07T09:09:04;8.52;;;5.55;;
12177;SDS011;6152;48.728;9.256;2022-12-07T09:11:31;8.50;;;5.78;;
12177;SDS011;6152;48.728;9.256;2022-12-07T09:13:57;9.05;;;6.07;;
12177;SDS011;6152;48.728;9.256;2022-12-07T09:16:23;7.28;;;4.95;;
12177;SDS011;6152;48.728;9.256;2022-12-07T09:18:49;8.73;;;4.95;;
12177;SDS011;6152;48.728;9.256;2022-12-07T09:21:15;9.55;;;5.35;;
12177;SDS011;6152;48.728;9.256;2022-12-07T09:23:42;7.25;;;5.00;;
12177;SDS011;6152;48.728;9.256;2022-12-07T09:26:08;8.10;;;5.30;;
12177;SDS011;6152;48.728;9.256;2022-12-07T09:28:34;7.43;;;4.85;;
12177;SDS011;6152;48.728;9.256;2022-12-07T09:31:01;9.13;;;5.55;;
12177;SDS011;6152;48.728;9.256;2022-12-07T09:33:28;9.00;;;4.80;;
12177;SDS011;6152;48.728;9.256;2022-12-07T09:35:54;9.05;;;5.00;;
12177;SDS011;6152;48.728;9.256;2022-12-07T09:38:20;7.38;;;4.40;;
12177;SDS011;6152;48.728;9.256;2022-12-07T09:40:46;5.88;;;4.18;;
12177;SDS011;6152;48.728;9.256;2022-12-07T09:43:20;7.00;;;4.10;;
12177;SDS011;6152;48.728;9.256;2022-12-07T09:45:50;5.68;;;3.85;;
12177;SDS011;6152;48.728;9.256;2022-12-07T09:50:53;5.55;;;4.03;;
12177;SDS011;6152;48.728;9.256;2022-12-07T09:53:23;5.88;;;4.03;;
12177;SDS011;6152;48.728;9.256;2022-12-07T09:55:50;7.97;;;4.35;;
12177;SDS011;6152;48.728;9.256;2022-12-07T09:58:26;7.20;;;4.00;;
12177;SDS011;6152;48.728;9.256;2022-12-07T10:03:38;7.53;;;4.07;;
12177;SDS011;6152;48.728;9.256;2022-12-07T10:06:06;5.68;;;3.63;;
12177;SDS011;6152;48.728;9.256;2022-12-07T10:08:35;6.93;;;4.10;;
12177;SDS011;6152;48.728;9.256;2022-12-07T10:11:02;4.65;;;3.33;;
12177;SDS011;6152;48.728;9.256;2022-12-07T10:13:36;5.95;;;4.20;;
12177;SDS011;6152;48.728;9.256;2022-12-07T10:16:05;5.55;;;3.70;;
12177;SDS011;6152;48.728;9.256;2022-12-07T10:18:52;4.85;;;3.70;;
12177;SDS011;6152;48.728;9.256;2022-12-07T10:21:20;6.00;;;3.47;;
12177;SDS011;6152;48.728;9.256;2022-12-07T10:26:35;5.90;;;3.47;;
12177;SDS011;6152;48.728;9.256;2022-12-07T10:29:18;5.07;;;3.33;;
12177;SDS011;6152;48.728;9.256;2022-12-07T10:32:00;8.95;;;3.60;;
12177;SDS011;6152;48.728;9.256;2022-12-07T10:39:51;6.88;;;3.50;;
12177;SDS011;6152;48.728;9.256;2022-12-07T10:42:20;4.70;;;3.28;;
12177;SDS011;6152;48.728;9.256;2022-12-07T10:45:13;4.55;;;3.13;;
12177;SDS011;6152;48.728;9.256;2022-12-07T10:53:15;6.28;;;3.50;;
12177;SDS011;6152;48.728;9.256;2022-12-07T11:01:31;4.10;;;2.80;;
12177;SDS011;6152;48.728;9.256;2022-12-07T11:07:04;5.53;;;3.20;;
12177;SDS011;6152;48.728;9.256;2022-12-07T11:17:42;4.53;;;3.15;;
12177;SDS011;6152;48.728;9.256;2022-12-07T11:37:17;4.65;;;3.03;;
12177;SDS011;6152;48.728;9.256;2022-12-07T11:39:51;4.07;;;2.53;;
12177;SDS011;6152;48.728;9.256;2022-12-07T11:42:21;7.72;;;3.00;;
12177;SDS011;6152;48.728;9.256;2022-12-07T11:45:03;5.47;;;2.78;;
12177;SDS011;6152;48.728;9.256;2022-12-07T11:47:48;4.95;;;3.15;;
12177;SDS011;6152;48.728;9.256;2022-12-07T11:55:44;4.60;;;2.97;;
12177;SDS011;6152;48.728;9.256;2022-12-07T12:04:29;5.43;;;3.10;;
12177;SDS011;6152;48.728;9.256;2022-12-07T12:07:13;4.13;;;2.65;;
12177;SDS011;6152;48.728;9.256;2022-12-07T12:09:53;4.28;;;2.80;;
12177;SDS011;6152;48.728;9.256;2022-12-07T12:12:54;4.38;;;2.75;;
12177;SDS011;6152;48.728;9.256;2022-12-07T12:15:52;6.28;;;2.80;;
12177;SDS011;6152;48.728;9.256;2022-12-07T12:21:06;4.93;;;3.10;;
12177;SDS011;6152;48.728;9.256;2022-12-07T12:23:48;5.10;;;3.17;;
12177;SDS011;6152;48.728;9.256;2022-12-07T12:26:22;4.43;;;3.15;;
12177;SDS011;6152;48.728;9.256;2022-12-07T12:28:56;6.03;;;3.22;;
12177;SDS011;6152;48.728;9.256;2022-12-07T12:31:46;5.28;;;3.22;;
12177;SDS011;6152;48.728;9.256;2022-12-07T12:36:58;4.80;;;2.55;;
12177;SDS011;6152;48.728;9.256;2022-12-07T12:39:24;4.53;;;2.85;;
12177;SDS011;6152;48.728;9.256;2022-12-07T12:41:52;3.55;;;2.55;;
12177;SDS011;6152;48.728;9.256;2022-12-07T12:49:34;4.22;;;1.88;;
12177;SDS011;6152;48.728;9.256;2022-12-07T12:55:11;3.58;;;2.60;;
12177;SDS011;6152;48.728;9.256;2022-12-07T12:57:39;3.13;;;2.38;;
12177;SDS011;6152;48.728;9.256;2022-12-07T13:02:49;3.95;;;2.97;;
12177;SDS011;6152;48.728;9.256;2022-12-07T13:05:22;4.00;;;2.97;;
12177;SDS011;6152;48.728;9.256;2022-12-07T13:07:56;3.65;;;2.83;;
12177;SDS011;6152;48.728;9.256;2022-12-07T13:10:42;3.78;;;2.78;;
12177;SDS011;6152;48.728;9.256;2022-12-07T13:15:38;5.35;;;3.75;;
12177;SDS011;6152;48.728;9.256;2022-12-07T13:29:00;4.30;;;3.28;;
12177;SDS011;6152;48.728;9.256;2022-12-07T13:31:36;4.57;;;3.13;;
12177;SDS011;6152;48.728;9.256;2022-12-07T13:37:09;4.00;;;2.90;;
12177;SDS011;6152;48.728;9.256;2022-12-07T13:39:49;4.70;;;2.95;;
12177;SDS011;6152;48.728;9.256;2022-12-07T13:42:26;4.10;;;3.22;;
12177;SDS011;6152;48.728;9.256;2022-12-07T13:44:57;4.45;;;3.15;;
12177;SDS011;6152;48.728;9.256;2022-12-07T13:47:35;4.85;;;2.95;;
12177;SDS011;6152;48.728;9.256;2022-12-07T13:52:56;4.78;;;2.90;;
12177;SDS011;6152;48.728;9.256;2022-12-07T13:55:23;4.60;;;2.75;;
12177;SDS011;6152;48.728;9.256;2022-12-07T13:57:50;5.38;;;2.75;;
12177;SDS011;6152;48.728;9.256;2022-12-07T14:00:19;4.18;;;2.88;;
12177;SDS011;6152;48.728;9.256;2022-12-07T14:03:30;3.65;;;2.60;;
12177;SDS011;6152;48.728;9.256;2022-12-07T14:05:37;3.42;;;2.58;;
12177;SDS011;6152;48.728;9.256;2022-12-07T14:10:40;3.67;;;2.97;;
12177;SDS011;6152;48.728;9.256;2022-12-07T14:18:50;5.47;;;3.60;;
12177;SDS011;6152;48.728;9.256;2022-12-07T14:21:19;2.50;;;2.28;;
12177;SDS011;6152;48.728;9.256;2022-12-07T14:26:40;4.38;;;2.45;;
12177;SDS011;6152;48.728;9.256;2022-12-07T14:31:56;2.33;;;2.10;;
12177;SDS011;6152;48.728;9.256;2022-12-07T14:34:24;4.68;;;2.70;;
12177;SDS011;6152;48.728;9.256;2022-12-07T14:36:50;4.85;;;2.55;;
12177;SDS011;6152;48.728;9.256;2022-12-07T14:39:16;3.17;;;2.50;;
12177;SDS011;6152;48.728;9.256;2022-12-07T14:41:43;3.20;;;2.47;;
12177;SDS011;6152;48.728;9.256;2022-12-07T14:44:15;3.30;;;2.60;;
12177;SDS011;6152;48.728;9.256;2022-12-07T14:46:43;2.97;;;2.55;;
12177;SDS011;6152;48.728;9.256;2022-12-07T14:49:09;3.28;;;2.47;;
12177;SDS011;6152;48.728;9.256;2022-12-07T14:51:36;3.45;;;2.78;;
12177;SDS011;6152;48.728;9.256;2022-12-07T14:54:04;3.97;;;2.47;;
12177;SDS011;6152;48.728;9.256;2022-12-07T14:56:51;2.90;;;2.38;;
12177;SDS011;6152;48.728;9.256;2022-12-07T14:59:17;3.15;;;2.63;;
12177;SDS011;6152;48.728;9.256;2022-12-07T15:01:44;3.28;;;2.22;;
12177;SDS011;6152;48.728;9.256;2022-12-07T15:04:10;3.58;;;2.60;;
12177;SDS011;6152;48.728;9.256;2022-12-07T15:06:36;5.00;;;2.65;;
12177;SDS011;6152;48.728;9.256;2022-12-07T15:09:03;4.80;;;2.97;;
12177;SDS011;6152;48.728;9.256;2022-12-07T15:11:29;3.95;;;2.60;;
12177;SDS011;6152;48.728;9.256;2022-12-07T15:13:55;3.13;;;2.65;;
12177;SDS011;6152;48.728;9.256;2022-12-07T15:16:34;5.22;;;2.70;;
12177;SDS011;6152;48.728;9.256;2022-12-07T15:19:02;4.05;;;2.70;;
12177;SDS011;6152;48.728;9.256;2022-12-07T15:21:28;4.50;;;2.95;;
12177;SDS011;6152;48.728;9.256;2022-12-07T15:23:54;4.60;;;3.17;;
12177;SDS011;6152;48.728;9.256;2022-12-07T15:26:20;4.95;;;3.63;;
12177;SDS011;6152;48.728;9.256;2022-12-07T15:28:47;4.93;;;3.17;;
12177;SDS011;6152;48.728;9.256;2022-12-07T15:31:16;4.13;;;3.08;;
12177;SDS011;6152;48.728;9.256;2022-12-07T15:33:43;3.53;;;2.75;;
12177;SDS011;6152;48.728;9.256;2022-12-07T15:36:16;3.72;;;2.83;;
12177;SDS011;6152;48.728;9.256;2022-12-07T15:38:46;6.07;;;3.67;;
12177;SDS011;6152;48.728;9.256;2022-12-07T15:41:13;6.82;;;4.50;;
12177;SDS011;6152;48.728;9.256;2022-12-07T15:43:39;5.40;;;3.20;;
12177;SDS011;6152;48.728;9.256;2022-12-07T15:46:23;5.72;;;4.22;;
12177;SDS011;6152;48.728;9.256;2022-12-07T15:48:54;4.70;;;3.40;;
12177;SDS011;6152;48.728;9.256;2022-12-07T15:51:20;3.92;;;3.00;;
12177;SDS011;6152;48.728;9.256;2022-12-07T15:53:46;4.10;;;3.35;;
12177;SDS011;6152;48.728;9.256;2022-12-07T15:56:12;4.78;;;3.55;;
12177;SDS011;6152;48.728;9.256;2022-12-07T15:58:38;6.40;;;3.42;;
12177;SDS011;6152;48.728;9.256;2022-12-07T16:01:11;4.97;;;3.33;;
12177;SDS011;6152;48.728;9.256;2022-12-07T16:03:38;4.13;;;3.00;;
12177;SDS011;6152;48.728;9.256;2022-12-07T16:06:04;2.92;;;2.30;;
12177;SDS011;6152;48.728;9.256;2022-12-07T16:08:31;3.17;;;2.42;;
12177;SDS011;6152;48.728;9.256;2022-12-07T16:10:57;4.10;;;3.08;;
12177;SDS011;6152;48.728;9.256;2022-12-07T16:13:23;2.97;;;2.53;;
12177;SDS011;6152;48.728;9.256;2022-12-07T16:15:49;4.60;;;3.15;;
12177;SDS011;6152;48.728;9.256;2022-12-07T16:18:16;5.25;;;3.17;;
12177;SDS011;6152;48.728;9.256;2022-12-07T16:20:42;5.32;;;3.30;;
12177;SDS011;6152;48.728;9.256;2022-12-07T16:23:08;6.38;;;3.10;;
12177;SDS011;6152;48.728;9.256;2022-12-07T16:25:34;6.97;;;3.55;;
12177;SDS011;6152;48.728;9.256;2022-12-07T16:28:01;5.97;;;4.15;;
12177;SDS011;6152;48.728;9.256;2022-12-07T16:30:27;5.47;;;3.70;;
12177;SDS011;6152;48.728;9.256;2022-12-07T16:32:53;8.05;;;5.20;;
12177;SDS011;6152;48.728;9.256;2022-12-07T16:35:19;7.93;;;4.63;;
12177;SDS011;6152;48.728;9.256;2022-12-07T16:37:45;6.50;;;3.95;;
12177;SDS011;6152;48.728;9.256;2022-12-07T16:40:11;5.80;;;3.25;;
12177;SDS011;6152;48.728;9.256;2022-12-07T16:42:37;5.73;;;3.60;;
12177;SDS011;6152;48.728;9.256;2022-12-07T16:45:04;6.70;;;3.50;;
12177;SDS011;6152;48.728;9.256;2022-12-07T16:47:30;6.60;;;4.07;;
12177;SDS011;6152;48.728;9.256;2022-12-07T16:49:56;7.20;;;4.60;;
12177;SDS011;6152;48.728;9.256;2022-12-07T16:52:22;7.20;;;4.63;;
12177;SDS011;6152;48.728;9.256;2022-12-07T16:54:49;6.75;;;3.90;;
12177;SDS011;6152;48.728;9.256;2022-12-07T16:57:16;7.60;;;4.25;;
12177;SDS011;6152;48.728;9.256;2022-12-07T16:59:42;8.02;;;4.53;;
12177;SDS011;6152;48.728;9.256;2022-12-07T17:02:10;8.52;;;4.68;;
12177;SDS011;6152;48.728;9.256;2022-12-07T17:04:37;7.68;;;4.93;;
12177;SDS011;6152;48.728;9.256;2022-12-07T17:07:04;7.13;;;4.90;;
12177;SDS011;6152;48.728;9.256;2022-12-07T17:09:31;9.43;;;5.22;;
12177;SDS011;6152;48.728;9.256;2022-12-07T17:11:57;11.43;;;6.35;;
12177;SDS011;6152;48.728;9.256;2022-12-07T17:14:23;9.95;;;6.15;;
12177;SDS011;6152;48.728;9.256;2022-12-07T17:17:08;9.27;;;5.97;;
12177;SDS011;6152;48.728;9.256;2022-12-07T17:19:34;10.70;;;6.15;;
12177;SDS011;6152;48.728;9.256;2022-12-07T17:22:00;10.50;;;6.13;;
12177;SDS011;6152;48.728;9.256;2022-12-07T17:24:26;8.23;;;5.25;;
12177;SDS011;6152;48.728;9.256;2022-12-07T17:26:52;9.60;;;5.20;;
12177;SDS011;6152;48.728;9.256;2022-12-07T17:29:18;10.27;;;5.65;;
12177;SDS011;6152;48.728;9.256;2022-12-07T17:31:45;10.98;;;6.35;;
12177;SDS011;6152;48.728;9.256;2022-12-07T17:34:12;9.25;;;6.10;;
12177;SDS011;6152;48.728;9.256;2022-12-07T17:36:40;8.90;;;6.03;;
12177;SDS011;6152;48.728;9.256;2022-12-07T17:39:07;8.48;;;6.22;;
12177;SDS011;6152;48.728;9.256;2022-12-07T17:41:35;9.13;;;6.00;;
12177;SDS011;6152;48.728;9.256;2022-12-07T17:44:20;12.77;;;6.13;;
12177;SDS011;6152;48.728;9.256;2022-12-07T17:46:48;8.48;;;6.00;;